sensor_id;sensor_type;location;lat;lon;timestamp;temperature;humidity
44723;DHT22;30451;48.638;10.624;2023-02-18T00:00:17;23.60;48.00
44723;DHT22;30451;48.638;10.624;2023-02-18T00:02:43;23.60;48.00
44723;DHT22;30451;48.638;10.624;2023-02-18T00:05:09;23.60;48.10
44723;DHT22;30451;48.638;10.624;2023-02-18T00:07:36;23.50;48.10
44723;DHT22;30451;48.638;10.624;2023-02-18T00:10:03;23.50;48.00
44723;DHT22;30451;48.638;10.624;2023-02-18T00:12:30;23.50;48.10
44723;DHT22;30451;48.638;10.624;2023-02-18T00:14:56;23.50;48.10
44723;DHT22;30451;48.638;10.624;2023-02-18T00:17:22;23.50;48.10
44723;DHT22;30451;48.638;10.624;2023-02-18T00:19:47;23.40;48.10
44723;DHT22;30451;48.638;10.624;2023-02-18T00:22:13;23.40;48.10
44723;DHT22;30451;48.638;10.624;2023-02-18T00:24:39;23.40;48.10
44723;DHT22;30451;48.638;10.624;2023-02-18T00:27:04;23.40;48.20
44723;DHT22;30451;48.638;10.624;2023-02-18T00:29:31;23.40;48.20
44723;DHT22;30451;48.638;10.624;2023-02-18T00:31:56;23.40;48.20
44723;DHT22;30451;48.638;10.624;2023-02-18T00:34:22;23.40;48.20
44723;DHT22;30451;48.638;10.624;2023-02-18T00:36:48;23.30;48.20
44723;DHT22;30451;48.638;10.624;2023-02-18T00:39:13;23.30;48.20
44723;DHT22;30451;48.638;10.624;2023-02-18T00:41:39;23.30;48.20
44723;DHT22;30451;48.638;10.624;2023-02-18T00:44:05;23.30;48.20
44723;DHT22;30451;48.638;10.624;2023-02-18T00:46:31;23.20;48.10
44723;DHT22;30451;48.638;10.624;2023-02-18T00:48:57;23.20;48.10
44723;DHT22;30451;48.638;10.624;2023-02-18T00:51:23;23.20;48.20
44723;DHT22;30451;48.638;10.624;2023-02-18T00:53:52;23.20;48.20
44723;DHT22;30451;48.638;10.624;2023-02-18T00:56:18;23.20;48.20
44723;DHT22;30451;48.638;10.624;2023-02-18T00:58:44;23.20;48.20
44723;DHT22;30451;48.638;10.624;2023-02-18T01:01:10;23.20;48.20
44723;DHT22;30451;48.638;10.624;2023-02-18T01:03:37;23.20;48.30
44723;DHT22;30451;48.638;10.624;2023-02-18T01:06:04;23.10;48.20
44723;DHT22;30451;48.638;10.624;2023-02-18T01:08:30;23.10;48.20
44723;DHT22;30451;48.638;10.624;2023-02-18T01:10:57;23.10;48.30
44723;DHT22;30451;48.638;10.624;2023-02-18T01:13:23;23.10;48.30
44723;DHT22;30451;48.638;10.624;2023-02-18T01:15:49;23.00;48.30
44723;DHT22;30451;48.638;10.624;2023-02-18T01:18:15;23.00;48.80
44723;DHT22;30451;48.638;10.624;2023-02-18T01:20:42;23.00;48.30
44723;DHT22;30451;48.638;10.624;2023-02-18T01:23:08;23.00;48.30
44723;DHT22;30451;48.638;10.624;2023-02-18T01:25:35;23.00;48.40
44723;DHT22;30451;48.638;10.624;2023-02-18T01:28:01;23.00;48.40
44723;DHT22;30451;48.638;10.624;2023-02-18T01:30:27;23.00;48.40
44723;DHT22;30451;48.638;10.624;2023-02-18T01:32:53;23.00;48.40
44723;DHT22;30451;48.638;10.624;2023-02-18T01:35:19;23.00;48.40
44723;DHT22;30451;48.638;10.624;2023-02-18T01:37:46;23.00;48.40
44723;DHT22;30451;48.638;10.624;2023-02-18T01:40:13;22.90;48.40
44723;DHT22;30451;48.638;10.624;2023-02-18T01:42:40;22.90;48.50
44723;DHT22;30451;48.638;10.624;2023-02-18T01:48:12;22.90;48.40
44723;DHT22;30451;48.638;10.624;2023-02-18T01:50:44;22.90;48.50
44723;DHT22;30451;48.638;10.624;2023-02-18T01:53:16;22.90;48.50
44723;DHT22;30451;48.638;10.624;2023-02-18T01:55:43;22.80;48.50
44723;DHT22;30451;48.638;10.624;2023-02-18T01:58:10;22.90;48.50
44723;DHT22;30451;48.638;10.624;2023-02-18T02:00:36;22.80;48.50
44723;DHT22;30451;48.638;10.624;2023-02-18T02:03:02;22.80;48.50
44723;DHT22;30451;48.638;10.624;2023-02-18T02:05:32;22.80;48.50
44723;DHT22;30451;48.638;10.624;2023-02-18T02:07:58;22.80;48.60
44723;DHT22;30451;48.638;10.624;2023-02-18T02:10:39;22.80;48.60
44723;DHT22;30451;48.638;10.624;2023-02-18T02:16:11;22.70;48.70
44723;DHT22;30451;48.638;10.624;2023-02-18T02:18:59;22.70;48.60
44723;DHT22;30451;48.638;10.624;2023-02-18T02:31:49;22.70;48.70
44723;DHT22;30451;48.638;10.624;2023-02-18T02:45:28;22.60;48.80
44723;DHT22;30451;48.638;10.624;2023-02-18T02:53:20;22.50;48.80
44723;DHT22;30451;48.638;10.624;2023-02-18T02:55:47;22.50;48.80
44723;DHT22;30451;48.638;10.624;2023-02-18T02:58:15;22.50;48.80
44723;DHT22;30451;48.638;10.624;2023-02-18T03:01:03;22.50;48.80
44723;DHT22;30451;48.638;10.624;2023-02-18T03:09:28;22.50;48.80
44723;DHT22;30451;48.638;10.624;2023-02-18T03:14:55;22.50;48.90
44723;DHT22;30451;48.638;10.624;2023-02-18T03:17:25;22.40;48.90
44723;DHT22;30451;48.638;10.624;2023-02-18T03:19:56;22.40;49.00
44723;DHT22;30451;48.638;10.624;2023-02-18T03:22:38;22.40;49.00
44723;DHT22;30451;48.638;10.624;2023-02-18T03:25:06;22.40;49.00
44723;DHT22;30451;48.638;10.624;2023-02-18T03:27:38;22.40;48.90
44723;DHT22;30451;48.638;10.624;2023-02-18T03:30:32;22.40;48.90
44723;DHT22;30451;48.638;10.624;2023-02-18T03:33:02;22.40;49.00
44723;DHT22;30451;48.638;10.624;2023-02-18T03:35:29;22.40;48.90
44723;DHT22;30451;48.638;10.624;2023-02-18T03:38:00;22.30;48.90
44723;DHT22;30451;48.638;10.624;2023-02-18T03:40:28;22.30;48.90
44723;DHT22;30451;48.638;10.624;2023-02-18T03:42:56;22.30;48.90
44723;DHT22;30451;48.638;10.624;2023-02-18T03:45:23;22.30;48.90
44723;DHT22;30451;48.638;10.624;2023-02-18T03:47:49;22.30;48.90
44723;DHT22;30451;48.638;10.624;2023-02-18T03:50:15;22.30;48.90
44723;DHT22;30451;48.638;10.624;2023-02-18T03:52:41;22.30;48.90
44723;DHT22;30451;48.638;10.624;2023-02-18T03:55:06;22.30;48.90
44723;DHT22;30451;48.638;10.624;2023-02-18T03:57:33;22.30;48.90
44723;DHT22;30451;48.638;10.624;2023-02-18T03:59:59;22.30;48.90
44723;DHT22;30451;48.638;10.624;2023-02-18T04:02:25;22.30;48.90
44723;DHT22;30451;48.638;10.624;2023-02-18T04:04:50;22.30;48.90
44723;DHT22;30451;48.638;10.624;2023-02-18T04:07:16;22.30;48.90
44723;DHT22;30451;48.638;10.624;2023-02-18T04:09:42;22.20;48.80
44723;DHT22;30451;48.638;10.624;2023-02-18T04:12:07;22.20;48.80
44723;DHT22;30451;48.638;10.624;2023-02-18T04:14:33;22.20;48.80
44723;DHT22;30451;48.638;10.624;2023-02-18T04:16:58;22.30;49.00
44723;DHT22;30451;48.638;10.624;2023-02-18T04:19:25;22.20;48.90
44723;DHT22;30451;48.638;10.624;2023-02-18T04:21:51;22.20;48.90
44723;DHT22;30451;48.638;10.624;2023-02-18T04:24:17;22.20;48.90
44723;DHT22;30451;48.638;10.624;2023-02-18T04:26:42;22.20;48.90
44723;DHT22;30451;48.638;10.624;2023-02-18T04:29:08;22.20;49.00
44723;DHT22;30451;48.638;10.624;2023-02-18T04:31:33;22.20;49.00
44723;DHT22;30451;48.638;10.624;2023-02-18T04:33:59;22.20;49.00
44723;DHT22;30451;48.638;10.624;2023-02-18T04:36:24;22.20;49.00
44723;DHT22;30451;48.638;10.624;2023-02-18T04:38:50;22.20;49.00
44723;DHT22;30451;48.638;10.624;2023-02-18T04:41:16;22.20;49.00
44723;DHT22;30451;48.638;10.624;2023-02-18T04:43:41;22.20;49.00
44723;DHT22;30451;48.638;10.624;2023-02-18T04:46:07;22.10;49.10
44723;DHT22;30451;48.638;10.624;2023-02-18T04:48:32;22.10;49.00
44723;DHT22;30451;48.638;10.624;2023-02-18T04:50:59;22.10;49.00
44723;DHT22;30451;48.638;10.624;2023-02-18T04:53:25;22.10;49.10
44723;DHT22;30451;48.638;10.624;2023-02-18T04:55:51;22.10;49.10
44723;DHT22;30451;48.638;10.624;2023-02-18T04:58:18;22.10;49.00
44723;DHT22;30451;48.638;10.624;2023-02-18T05:00:43;22.10;49.10
44723;DHT22;30451;48.638;10.624;2023-02-18T05:03:09;22.10;49.10
44723;DHT22;30451;48.638;10.624;2023-02-18T05:05:35;22.10;49.60
44723;DHT22;30451;48.638;10.624;2023-02-18T05:08:02;22.10;49.10
44723;DHT22;30451;48.638;10.624;2023-02-18T05:10:28;22.10;49.00
44723;DHT22;30451;48.638;10.624;2023-02-18T05:12:53;22.10;49.10
44723;DHT22;30451;48.638;10.624;2023-02-18T05:15:19;22.00;49.00
44723;DHT22;30451;48.638;10.624;2023-02-18T05:17:45;22.10;49.10
44723;DHT22;30451;48.638;10.624;2023-02-18T05:20:11;22.10;49.10
44723;DHT22;30451;48.638;10.624;2023-02-18T05:22:37;22.00;49.00
44723;DHT22;30451;48.638;10.624;2023-02-18T05:25:04;22.00;49.00
44723;DHT22;30451;48.638;10.624;2023-02-18T05:27:29;22.10;49.00
44723;DHT22;30451;48.638;10.624;2023-02-18T05:29:55;22.10;49.00
44723;DHT22;30451;48.638;10.624;2023-02-18T05:32:21;22.00;49.40
44723;DHT22;30451;48.638;10.624;2023-02-18T05:34:47;22.00;49.00
44723;DHT22;30451;48.638;10.624;2023-02-18T05:37:12;22.00;48.90
44723;DHT22;30451;48.638;10.624;2023-02-18T05:39:39;22.00;48.90
44723;DHT22;30451;48.638;10.624;2023-02-18T05:42:05;22.10;48.90
44723;DHT22;30451;48.638;10.624;2023-02-18T05:44:31;22.00;49.30
44723;DHT22;30451;48.638;10.624;2023-02-18T05:47:02;22.00;48.90
44723;DHT22;30451;48.638;10.624;2023-02-18T05:49:29;22.00;49.00
44723;DHT22;30451;48.638;10.624;2023-02-18T05:51:55;22.00;49.00
44723;DHT22;30451;48.638;10.624;2023-02-18T05:54:21;22.00;49.00
44723;DHT22;30451;48.638;10.624;2023-02-18T05:56:47;22.00;49.00
44723;DHT22;30451;48.638;10.624;2023-02-18T05:59:13;22.00;49.00
44723;DHT22;30451;48.638;10.624;2023-02-18T06:01:39;22.00;49.60
44723;DHT22;30451;48.638;10.624;2023-02-18T06:04:05;22.00;49.00
44723;DHT22;30451;48.638;10.624;2023-02-18T06:06:30;22.00;49.00
44723;DHT22;30451;48.638;10.624;2023-02-18T06:08:56;22.00;49.00
44723;DHT22;30451;48.638;10.624;2023-02-18T06:11:22;22.00;49.10
44723;DHT22;30451;48.638;10.624;2023-02-18T06:13:47;22.00;49.10
44723;DHT22;30451;48.638;10.624;2023-02-18T06:16:13;22.00;49.10
44723;DHT22;30451;48.638;10.624;2023-02-18T06:18:39;22.00;49.10
44723;DHT22;30451;48.638;10.624;2023-02-18T06:21:04;22.00;49.20
44723;DHT22;30451;48.638;10.624;2023-02-18T06:23:30;22.00;49.20
44723;DHT22;30451;48.638;10.624;2023-02-18T06:25:56;22.00;49.20
44723;DHT22;30451;48.638;10.624;2023-02-18T06:28:22;22.00;49.20
44723;DHT22;30451;48.638;10.624;2023-02-18T06:30:48;22.00;49.20
44723;DHT22;30451;48.638;10.624;2023-02-18T06:33:14;22.00;49.20
44723;DHT22;30451;48.638;10.624;2023-02-18T06:35:39;21.90;49.70
44723;DHT22;30451;48.638;10.624;2023-02-18T06:38:05;21.90;49.20
44723;DHT22;30451;48.638;10.624;2023-02-18T06:40:31;21.90;49.20
44723;DHT22;30451;48.638;10.624;2023-02-18T06:42:56;21.90;49.20
44723;DHT22;30451;48.638;10.624;2023-02-18T06:45:22;21.90;49.20
44723;DHT22;30451;48.638;10.624;2023-02-18T06:47:47;21.90;49.20
44723;DHT22;30451;48.638;10.624;2023-02-18T06:50:14;21.90;49.20
44723;DHT22;30451;48.638;10.624;2023-02-18T06:52:39;21.90;49.20
44723;DHT22;30451;48.638;10.624;2023-02-18T06:55:05;21.90;49.20
44723;DHT22;30451;48.638;10.624;2023-02-18T06:57:31;21.90;49.20
44723;DHT22;30451;48.638;10.624;2023-02-18T06:59:57;21.90;49.20
44723;DHT22;30451;48.638;10.624;2023-02-18T07:02:23;21.90;49.20
44723;DHT22;30451;48.638;10.624;2023-02-18T07:04:48;21.90;49.70
44723;DHT22;30451;48.638;10.624;2023-02-18T07:07:14;21.90;49.20
44723;DHT22;30451;48.638;10.624;2023-02-18T07:09:39;21.90;49.20
44723;DHT22;30451;48.638;10.624;2023-02-18T07:12:05;21.90;49.20
44723;DHT22;30451;48.638;10.624;2023-02-18T07:14:31;21.90;49.20
44723;DHT22;30451;48.638;10.624;2023-02-18T07:16:56;21.90;49.20
44723;DHT22;30451;48.638;10.624;2023-02-18T07:19:22;21.90;49.20
44723;DHT22;30451;48.638;10.624;2023-02-18T07:21:48;21.80;49.10
44723;DHT22;30451;48.638;10.624;2023-02-18T07:24:13;21.80;49.10
44723;DHT22;30451;48.638;10.624;2023-02-18T07:26:39;21.80;49.10
44723;DHT22;30451;48.638;10.624;2023-02-18T07:29:05;21.80;49.10
44723;DHT22;30451;48.638;10.624;2023-02-18T07:31:30;21.80;49.00
44723;DHT22;30451;48.638;10.624;2023-02-18T07:33:56;21.80;49.00
44723;DHT22;30451;48.638;10.624;2023-02-18T07:36:21;21.80;49.50
44723;DHT22;30451;48.638;10.624;2023-02-18T07:38:47;21.80;49.00
44723;DHT22;30451;48.638;10.624;2023-02-18T07:41:18;21.80;49.00
44723;DHT22;30451;48.638;10.624;2023-02-18T07:43:44;21.80;49.50
44723;DHT22;30451;48.638;10.624;2023-02-18T07:46:10;21.80;49.10
44723;DHT22;30451;48.638;10.624;2023-02-18T07:48:35;21.80;49.10
44723;DHT22;30451;48.638;10.624;2023-02-18T07:51:08;21.80;49.10
44723;DHT22;30451;48.638;10.624;2023-02-18T07:53:35;21.80;49.00
44723;DHT22;30451;48.638;10.624;2023-02-18T07:56:01;21.80;49.10
44723;DHT22;30451;48.638;10.624;2023-02-18T07:58:32;21.80;49.60
44723;DHT22;30451;48.638;10.624;2023-02-18T08:00:58;21.80;49.10
44723;DHT22;30451;48.638;10.624;2023-02-18T08:03:27;21.70;49.00
44723;DHT22;30451;48.638;10.624;2023-02-18T08:05:53;21.80;49.10
44723;DHT22;30451;48.638;10.624;2023-02-18T08:08:21;21.80;49.10
44723;DHT22;30451;48.638;10.624;2023-02-18T08:10:48;21.70;49.10
44723;DHT22;30451;48.638;10.624;2023-02-18T08:13:14;21.70;49.10
44723;DHT22;30451;48.638;10.624;2023-02-18T08:15:40;21.70;49.10
44723;DHT22;30451;48.638;10.624;2023-02-18T08:18:07;21.70;49.10
44723;DHT22;30451;48.638;10.624;2023-02-18T08:20:37;21.70;49.10
44723;DHT22;30451;48.638;10.624;2023-02-18T08:23:04;21.70;49.10
44723;DHT22;30451;48.638;10.624;2023-02-18T08:25:30;21.70;49.20
44723;DHT22;30451;48.638;10.624;2023-02-18T08:27:56;21.70;49.10
44723;DHT22;30451;48.638;10.624;2023-02-18T08:30:22;21.70;49.20
44723;DHT22;30451;48.638;10.624;2023-02-18T08:32:47;21.70;49.10
44723;DHT22;30451;48.638;10.624;2023-02-18T08:35:13;21.70;49.20
44723;DHT22;30451;48.638;10.624;2023-02-18T08:37:38;21.70;49.20
44723;DHT22;30451;48.638;10.624;2023-02-18T08:40:05;21.70;49.20
44723;DHT22;30451;48.638;10.624;2023-02-18T08:42:31;21.70;49.20
44723;DHT22;30451;48.638;10.624;2023-02-18T08:44:57;21.70;49.20
44723;DHT22;30451;48.638;10.624;2023-02-18T08:47:22;21.70;49.20
44723;DHT22;30451;48.638;10.624;2023-02-18T08:49:48;21.70;49.20
44723;DHT22;30451;48.638;10.624;2023-02-18T08:52:13;21.70;49.20
44723;DHT22;30451;48.638;10.624;2023-02-18T08:54:39;21.70;49.30
44723;DHT22;30451;48.638;10.624;2023-02-18T08:57:05;21.70;49.30
44723;DHT22;30451;48.638;10.624;2023-02-18T08:59:30;21.70;49.30
44723;DHT22;30451;48.638;10.624;2023-02-18T09:01:56;21.70;49.30
44723;DHT22;30451;48.638;10.624;2023-02-18T09:04:21;21.60;49.30
44723;DHT22;30451;48.638;10.624;2023-02-18T09:06:48;21.70;49.80
44723;DHT22;30451;48.638;10.624;2023-02-18T09:09:15;21.70;49.30
44723;DHT22;30451;48.638;10.624;2023-02-18T09:11:41;21.60;49.30
44723;DHT22;30451;48.638;10.624;2023-02-18T09:14:07;21.60;49.20
44723;DHT22;30451;48.638;10.624;2023-02-18T09:16:33;21.60;49.30
44723;DHT22;30451;48.638;10.624;2023-02-18T09:18:58;21.60;49.20
44723;DHT22;30451;48.638;10.624;2023-02-18T09:21:25;21.60;49.30
44723;DHT22;30451;48.638;10.624;2023-02-18T09:23:51;21.60;49.30
44723;DHT22;30451;48.638;10.624;2023-02-18T09:26:18;21.60;49.30
44723;DHT22;30451;48.638;10.624;2023-02-18T09:28:47;21.60;49.30
44723;DHT22;30451;48.638;10.624;2023-02-18T09:31:16;21.60;49.30
44723;DHT22;30451;48.638;10.624;2023-02-18T09:33:47;21.60;49.40
44723;DHT22;30451;48.638;10.624;2023-02-18T09:36:15;21.60;49.40
44723;DHT22;30451;48.638;10.624;2023-02-18T09:38:41;21.60;49.40
44723;DHT22;30451;48.638;10.624;2023-02-18T09:43:50;21.60;49.40
44723;DHT22;30451;48.638;10.624;2023-02-18T09:48:49;21.60;49.40
44723;DHT22;30451;48.638;10.624;2023-02-18T09:51:15;21.60;49.60
44723;DHT22;30451;48.638;10.624;2023-02-18T09:53:42;21.60;49.80
44723;DHT22;30451;48.638;10.624;2023-02-18T09:56:22;21.60;49.90
44723;DHT22;30451;48.638;10.624;2023-02-18T09:58:51;21.70;49.80
44723;DHT22;30451;48.638;10.624;2023-02-18T10:01:33;21.70;49.70
44723;DHT22;30451;48.638;10.624;2023-02-18T10:06:39;21.80;49.60
44723;DHT22;30451;48.638;10.624;2023-02-18T10:09:20;21.80;49.60
44723;DHT22;30451;48.638;10.624;2023-02-18T10:12:15;21.80;49.50
44723;DHT22;30451;48.638;10.624;2023-02-18T10:14:44;21.80;49.70
44723;DHT22;30451;48.638;10.624;2023-02-18T10:17:13;21.90;49.70
44723;DHT22;30451;48.638;10.624;2023-02-18T10:19:40;21.90;49.70
44723;DHT22;30451;48.638;10.624;2023-02-18T10:22:08;22.00;49.70
44723;DHT22;30451;48.638;10.624;2023-02-18T10:24:47;22.00;49.60
44723;DHT22;30451;48.638;10.624;2023-02-18T10:27:29;22.10;49.60
44723;DHT22;30451;48.638;10.624;2023-02-18T10:29:57;22.20;49.50
44723;DHT22;30451;48.638;10.624;2023-02-18T10:32:37;22.30;49.40
44723;DHT22;30451;48.638;10.624;2023-02-18T10:41:08;22.60;49.10
44723;DHT22;30451;48.638;10.624;2023-02-18T10:51:52;22.70;48.60
44723;DHT22;30451;48.638;10.624;2023-02-18T10:54:22;22.70;48.60
44723;DHT22;30451;48.638;10.624;2023-02-18T10:56:50;22.70;48.60
44723;DHT22;30451;48.638;10.624;2023-02-18T10:59:25;22.80;48.50
44723;DHT22;30451;48.638;10.624;2023-02-18T11:02:15;22.80;48.50
44723;DHT22;30451;48.638;10.624;2023-02-18T11:04:43;22.80;48.50
44723;DHT22;30451;48.638;10.624;2023-02-18T11:07:15;22.90;48.50
44723;DHT22;30451;48.638;10.624;2023-02-18T11:09:52;22.90;48.40
44723;DHT22;30451;48.638;10.624;2023-02-18T11:15:06;22.90;48.40
44723;DHT22;30451;48.638;10.624;2023-02-18T11:17:42;22.90;48.40
44723;DHT22;30451;48.638;10.624;2023-02-18T11:20:28;22.90;48.40
44723;DHT22;30451;48.638;10.624;2023-02-18T11:25:34;22.90;48.30
44723;DHT22;30451;48.638;10.624;2023-02-18T11:28:03;22.90;48.30
44723;DHT22;30451;48.638;10.624;2023-02-18T11:33:22;22.90;48.30
44723;DHT22;30451;48.638;10.624;2023-02-18T11:35:53;23.00;48.30
44723;DHT22;30451;48.638;10.624;2023-02-18T11:38:23;23.00;48.30
44723;DHT22;30451;48.638;10.624;2023-02-18T11:41:06;23.00;48.20
44723;DHT22;30451;48.638;10.624;2023-02-18T11:43:33;23.00;48.20
44723;DHT22;30451;48.638;10.624;2023-02-18T11:46:09;23.00;48.20
44723;DHT22;30451;48.638;10.624;2023-02-18T11:48:35;23.00;48.30
44723;DHT22;30451;48.638;10.624;2023-02-18T11:51:01;23.00;48.30
44723;DHT22;30451;48.638;10.624;2023-02-18T11:53:33;23.00;48.20
44723;DHT22;30451;48.638;10.624;2023-02-18T11:56:02;23.00;48.30
44723;DHT22;30451;48.638;10.624;2023-02-18T11:58:37;23.00;48.20
44723;DHT22;30451;48.638;10.624;2023-02-18T12:01:05;23.00;48.20
44723;DHT22;30451;48.638;10.624;2023-02-18T12:07:00;23.00;48.20
44723;DHT22;30451;48.638;10.624;2023-02-18T12:09:32;23.00;48.20
44723;DHT22;30451;48.638;10.624;2023-02-18T12:12:18;23.00;48.30
44723;DHT22;30451;48.638;10.624;2023-02-18T12:14:48;22.90;48.30
44723;DHT22;30451;48.638;10.624;2023-02-18T12:20:16;23.00;48.30
44723;DHT22;30451;48.638;10.624;2023-02-18T12:28:05;22.90;48.40
44723;DHT22;30451;48.638;10.624;2023-02-18T12:30:42;23.00;48.40
44723;DHT22;30451;48.638;10.624;2023-02-18T12:41:58;23.00;48.40
44723;DHT22;30451;48.638;10.624;2023-02-18T12:50:00;23.00;48.40
44723;DHT22;30451;48.638;10.624;2023-02-18T13:00:25;23.00;48.40
44723;DHT22;30451;48.638;10.624;2023-02-18T13:08:48;23.00;48.40
44723;DHT22;30451;48.638;10.624;2023-02-18T13:14:27;23.00;48.40
44723;DHT22;30451;48.638;10.624;2023-02-18T13:16:55;23.00;48.40
44723;DHT22;30451;48.638;10.624;2023-02-18T13:21:52;23.00;48.30
44723;DHT22;30451;48.638;10.624;2023-02-18T13:24:36;23.00;48.40
44723;DHT22;30451;48.638;10.624;2023-02-18T13:27:28;23.00;48.30
44723;DHT22;30451;48.638;10.624;2023-02-18T13:30:30;23.00;48.30
44723;DHT22;30451;48.638;10.624;2023-02-18T13:33:20;23.00;48.30
44723;DHT22;30451;48.638;10.624;2023-02-18T13:41:25;23.00;48.40
44723;DHT22;30451;48.638;10.624;2023-02-18T13:43:51;23.10;48.50
44723;DHT22;30451;48.638;10.624;2023-02-18T13:46:19;23.00;48.40
44723;DHT22;30451;48.638;10.624;2023-02-18T13:48:51;23.10;48.60
44723;DHT22;30451;48.638;10.624;2023-02-18T13:56:34;23.00;48.60
44723;DHT22;30451;48.638;10.624;2023-02-18T14:01:47;23.00;48.60
44723;DHT22;30451;48.638;10.624;2023-02-18T14:09:47;23.10;49.30
44723;DHT22;30451;48.638;10.624;2023-02-18T14:12:36;23.10;48.80
44723;DHT22;30451;48.638;10.624;2023-02-18T14:33:40;23.30;48.70
44723;DHT22;30451;48.638;10.624;2023-02-18T14:36:38;23.30;48.70
44723;DHT22;30451;48.638;10.624;2023-02-18T14:50:23;23.40;48.60
44723;DHT22;30451;48.638;10.624;2023-02-18T14:52:53;23.40;48.60
44723;DHT22;30451;48.638;10.624;2023-02-18T14:55:27;23.40;48.60
44723;DHT22;30451;48.638;10.624;2023-02-18T14:58:05;23.40;48.60
44723;DHT22;30451;48.638;10.624;2023-02-18T15:00:40;23.50;48.60
44723;DHT22;30451;48.638;10.624;2023-02-18T15:03:14;23.50;48.60
44723;DHT22;30451;48.638;10.624;2023-02-18T15:05:41;23.50;48.60
44723;DHT22;30451;48.638;10.624;2023-02-18T15:08:23;23.50;48.60
44723;DHT22;30451;48.638;10.624;2023-02-18T15:11:01;23.50;49.20
44723;DHT22;30451;48.638;10.624;2023-02-18T15:13:34;23.50;48.60
44723;DHT22;30451;48.638;10.624;2023-02-18T15:16:06;23.60;48.80
44723;DHT22;30451;48.638;10.624;2023-02-18T15:18:39;23.50;48.50
44723;DHT22;30451;48.638;10.624;2023-02-18T15:21:07;23.50;48.50
44723;DHT22;30451;48.638;10.624;2023-02-18T15:23:35;23.50;48.40
44723;DHT22;30451;48.638;10.624;2023-02-18T15:26:02;23.60;48.50
44723;DHT22;30451;48.638;10.624;2023-02-18T15:28:32;23.50;48.40
44723;DHT22;30451;48.638;10.624;2023-02-18T15:31:02;23.50;48.50
44723;DHT22;30451;48.638;10.624;2023-02-18T15:33:28;23.50;48.50
44723;DHT22;30451;48.638;10.624;2023-02-18T15:36:03;23.50;48.50
44723;DHT22;30451;48.638;10.624;2023-02-18T15:38:29;23.60;48.60
44723;DHT22;30451;48.638;10.624;2023-02-18T15:40:55;23.50;49.10
44723;DHT22;30451;48.638;10.624;2023-02-18T15:43:22;23.50;48.50
44723;DHT22;30451;48.638;10.624;2023-02-18T15:45:53;23.50;48.50
44723;DHT22;30451;48.638;10.624;2023-02-18T15:50:54;23.50;48.50
44723;DHT22;30451;48.638;10.624;2023-02-18T15:53:21;23.50;48.50
44723;DHT22;30451;48.638;10.624;2023-02-18T15:55:52;23.50;48.50
44723;DHT22;30451;48.638;10.624;2023-02-18T15:58:21;23.50;48.50
44723;DHT22;30451;48.638;10.624;2023-02-18T16:00:53;23.50;49.20
44723;DHT22;30451;48.638;10.624;2023-02-18T16:03:24;23.50;48.60
44723;DHT22;30451;48.638;10.624;2023-02-18T16:06:06;23.50;48.60
44723;DHT22;30451;48.638;10.624;2023-02-18T16:08:33;23.50;48.70
44723;DHT22;30451;48.638;10.624;2023-02-18T16:13:26;23.40;48.90
44723;DHT22;30451;48.638;10.624;2023-02-18T16:15:53;23.40;49.10
44723;DHT22;30451;48.638;10.624;2023-02-18T16:18:29;23.40;49.10
44723;DHT22;30451;48.638;10.624;2023-02-18T16:21:49;23.40;49.20
44723;DHT22;30451;48.638;10.624;2023-02-18T16:23:58;23.40;49.30
44723;DHT22;30451;48.638;10.624;2023-02-18T16:29:14;23.40;49.50
44723;DHT22;30451;48.638;10.624;2023-02-18T16:31:41;23.40;49.50
44723;DHT22;30451;48.638;10.624;2023-02-18T16:34:07;23.40;49.50
44723;DHT22;30451;48.638;10.624;2023-02-18T16:36:33;23.40;49.60
44723;DHT22;30451;48.638;10.624;2023-02-18T16:39:00;23.40;49.60
44723;DHT22;30451;48.638;10.624;2023-02-18T16:41:27;23.40;49.80
44723;DHT22;30451;48.638;10.624;2023-02-18T16:43:53;23.40;49.90
44723;DHT22;30451;48.638;10.624;2023-02-18T16:46:21;23.40;50.00
44723;DHT22;30451;48.638;10.624;2023-02-18T16:48:54;23.40;50.00
44723;DHT22;30451;48.638;10.624;2023-02-18T16:51:21;23.40;50.00
44723;DHT22;30451;48.638;10.624;2023-02-18T16:53:48;23.40;49.90
44723;DHT22;30451;48.638;10.624;2023-02-18T16:56:18;23.40;49.90
44723;DHT22;30451;48.638;10.624;2023-02-18T16:58:44;23.40;49.90
44723;DHT22;30451;48.638;10.624;2023-02-18T17:01:26;23.40;49.90
44723;DHT22;30451;48.638;10.624;2023-02-18T17:03:54;23.30;50.50
44723;DHT22;30451;48.638;10.624;2023-02-18T17:06:20;23.40;50.60
44723;DHT22;30451;48.638;10.624;2023-02-18T17:08:46;23.30;50.00
44723;DHT22;30451;48.638;10.624;2023-02-18T17:11:25;23.30;50.00
44723;DHT22;30451;48.638;10.624;2023-02-18T17:13:52;23.30;50.00
44723;DHT22;30451;48.638;10.624;2023-02-18T17:16:19;23.30;50.00
44723;DHT22;30451;48.638;10.624;2023-02-18T17:18:45;23.30;50.00
44723;DHT22;30451;48.638;10.624;2023-02-18T17:21:13;23.30;50.00
44723;DHT22;30451;48.638;10.624;2023-02-18T17:23:39;23.30;50.00
44723;DHT22;30451;48.638;10.624;2023-02-18T17:26:15;23.30;50.00
44723;DHT22;30451;48.638;10.624;2023-02-18T17:28:41;23.30;50.00
44723;DHT22;30451;48.638;10.624;2023-02-18T17:31:17;23.30;50.00
44723;DHT22;30451;48.638;10.624;2023-02-18T17:33:45;23.30;50.00
44723;DHT22;30451;48.638;10.624;2023-02-18T17:36:11;23.20;49.90
44723;DHT22;30451;48.638;10.624;2023-02-18T17:38:37;23.30;50.00
44723;DHT22;30451;48.638;10.624;2023-02-18T17:41:04;23.20;50.00
44723;DHT22;30451;48.638;10.624;2023-02-18T17:43:29;23.20;50.00
44723;DHT22;30451;48.638;10.624;2023-02-18T17:45:56;23.20;50.00
44723;DHT22;30451;48.638;10.624;2023-02-18T17:48:22;23.20;50.00
44723;DHT22;30451;48.638;10.624;2023-02-18T17:50:48;23.20;50.00
44723;DHT22;30451;48.638;10.624;2023-02-18T17:53:15;23.20;50.00
44723;DHT22;30451;48.638;10.624;2023-02-18T17:55:42;23.20;50.00
44723;DHT22;30451;48.638;10.624;2023-02-18T17:58:08;23.20;50.00
44723;DHT22;30451;48.638;10.624;2023-02-18T18:00:37;23.20;50.00
44723;DHT22;30451;48.638;10.624;2023-02-18T18:03:03;23.20;50.20
44723;DHT22;30451;48.638;10.624;2023-02-18T18:05:34;23.20;51.10
44723;DHT22;30451;48.638;10.624;2023-02-18T18:08:01;23.20;50.80
44723;DHT22;30451;48.638;10.624;2023-02-18T18:10:30;23.20;50.80
44723;DHT22;30451;48.638;10.624;2023-02-18T18:12:59;23.20;50.80
44723;DHT22;30451;48.638;10.624;2023-02-18T18:15:34;23.20;50.80
44723;DHT22;30451;48.638;10.624;2023-02-18T18:18:00;23.20;50.90